Time;durP1;ratioP1;P1;durP2;ratioP2;P2;SDS_P1;SDS_P2;PMS_P1;PMS_P2;Temp;Humidity;BMP_temperature;BMP_pressure;BME280_temperature;BME280_humidity;BME280_pressure;Samples;Min_cycle;Max_cycle;Signal;HPM_P1;HPM_P2
2022/04/12 00:01:47;;;;;;;5.07;3.40;;;;;;;12.74;38.61;101101.31;4937335;28;114005;-68
2022/04/12 00:04:14;;;;;;;6.65;3.05;;;;;;;12.68;38.49;101102.47;4935906;28;114251;-67
2022/04/12 00:06:41;;;;;;;4.30;3.05;;;;;;;12.64;38.69;101096.47;4935594;28;124726;-68
2022/04/12 00:09:08;;;;;;;5.35;3.40;;;;;;;12.62;38.64;101092.13;4938357;28;124055;-67
2022/04/12 00:11:36;;;;;;;7.07;3.03;;;;;;;12.58;38.61;101096.78;4937527;28;115372;-68
2022/04/12 00:14:03;;;;;;;5.53;3.08;;;;;;;12.54;38.88;101095.19;4945541;28;114984;-67
2022/04/12 00:16:30;;;;;;;4.78;3.08;;;;;;;12.52;38.86;101089.06;4941108;28;123946;-68
2022/04/12 00:19:03;;;;;;;6.47;3.25;;;;;;;12.50;38.94;101088.28;4935541;28;124765;-68
2022/04/12 00:21:34;;;;;;;5.57;2.97;;;;;;;12.49;38.92;101080.41;4941223;28;114696;-68
2022/04/12 00:24:06;;;;;;;5.47;2.85;;;;;;;12.47;39.14;101077.84;4937057;28;113865;-68
2022/04/12 00:26:34;;;;;;;6.55;2.97;;;;;;;12.46;38.93;101076.09;4939728;28;123860;-67
2022/04/12 00:29:02;;;;;;;6.28;3.08;;;;;;;12.43;38.93;101065.63;4934317;28;124030;-67
2022/04/12 00:31:31;;;;;;;7.40;3.20;;;;;;;12.41;38.95;101064.84;4955713;28;114077;-67
2022/04/12 00:33:59;;;;;;;5.43;3.03;;;;;;;12.40;39.00;101060.47;4939167;28;113975;-67
2022/04/12 00:36:26;;;;;;;6.55;2.83;;;;;;;12.38;39.08;101046.41;4942868;28;123884;-68
2022/04/12 00:38:53;;;;;;;5.75;3.00;;;;;;;12.38;39.28;101046.41;4961197;28;122618;-67
2022/04/12 00:41:21;;;;;;;3.67;2.65;;;;;;;12.37;39.09;101050.84;4941567;28;114404;-67
2022/04/12 00:43:48;;;;;;;5.32;3.00;;;;;;;12.36;39.21;101048.28;4942906;28;115085;-67
2022/04/12 00:46:15;;;;;;;5.93;3.00;;;;;;;12.35;39.44;101051.88;4955533;28;124754;-67
2022/04/12 00:48:43;;;;;;;4.57;3.15;;;;;;;12.37;39.40;101060.63;4949701;28;124856;-68
2022/04/12 00:51:12;;;;;;;4.82;2.80;;;;;;;12.37;39.46;101055.31;4939503;28;114737;-68
2022/04/12 00:53:40;;;;;;;6.03;2.80;;;;;;;12.39;39.49;101048.13;4934743;28;113919;-67
2022/04/12 00:56:08;;;;;;;4.20;2.80;;;;;;;12.40;39.36;101060.47;4937002;28;123769;-68
2022/04/12 00:58:35;;;;;;;4.63;2.60;;;;;;;12.40;39.46;101049.84;4938265;28;124426;-68
2022/04/12 01:01:02;;;;;;;4.38;2.55;;;;;;;12.39;39.60;101050.78;4929962;28;115579;-68
2022/04/12 01:03:29;;;;;;;5.38;3.22;;;;;;;12.39;39.65;101042.81;4935088;28;115211;-67
2022/04/12 01:05:57;;;;;;;5.32;2.65;;;;;;;12.39;39.63;101042.81;4932575;28;124184;-68
2022/04/12 01:08:24;;;;;;;5.20;2.92;;;;;;;12.37;39.26;101039.38;4938284;28;123739;-69
2022/04/12 01:10:52;;;;;;;7.35;3.28;;;;;;;12.36;39.46;101032.34;4936181;28;114154;-68
2022/04/12 01:13:20;;;;;;;6.53;3.08;;;;;;;12.35;39.52;101033.28;4931103;28;114185;-68
2022/04/12 01:15:47;;;;;;;4.97;2.90;;;;;;;12.34;39.60;101034.19;4936561;28;124550;-68
2022/04/12 01:18:14;;;;;;;6.18;3.10;;;;;;;12.32;39.57;101030.75;4934394;28;124326;-68
2022/04/12 01:20:42;;;;;;;4.53;3.03;;;;;;;12.33;39.68;101048.44;4941492;28;115317;-68
2022/04/12 01:23:22;;;;;;;5.88;2.95;;;;;;;12.31;39.88;101045.00;4949791;28;113965;-69
2022/04/12 01:25:50;;;;;;;6.68;3.30;;;;;;;12.31;39.75;101050.31;4934751;28;124077;-68
2022/04/12 01:28:17;;;;;;;6.35;3.20;;;;;;;12.31;39.72;101039.69;4932285;28;123719;-68
2022/04/12 01:30:44;;;;;;;5.18;2.92;;;;;;;12.30;39.67;101037.94;4935438;28;114569;-68
2022/04/12 01:33:11;;;;;;;6.32;3.15;;;;;;;12.29;39.93;101033.59;4933492;28;113789;-68
2022/04/12 01:35:38;;;;;;;4.95;3.05;;;;;;;12.30;40.05;101032.63;4934229;28;123886;-68
2022/04/12 01:38:06;;;;;;;8.95;3.72;;;;;;;12.30;39.73;101027.31;4939554;28;124406;-68
2022/04/12 01:40:33;;;;;;;6.63;3.30;;;;;;;12.28;40.06;101035.34;4930735;28;114368;-68
2022/04/12 01:43:00;;;;;;;5.45;3.33;;;;;;;12.27;39.75;101039.81;4946163;28;114301;-68
2022/04/12 01:45:27;;;;;;;7.30;3.58;;;;;;;12.25;39.95;101041.69;4934311;28;124853;-68
2022/04/12 01:47:56;;;;;;;6.38;2.88;;;;;;;12.23;39.75;101037.41;4940991;28;123959;-68
2022/04/12 01:50:23;;;;;;;6.07;3.53;;;;;;;12.21;39.90;101029.50;4940134;28;115409;-68
2022/04/12 01:52:51;;;;;;;5.43;3.47;;;;;;;12.21;39.73;101040.13;4934997;28;115867;-68
2022/04/12 01:55:18;;;;;;;7.40;3.72;;;;;;;12.20;39.77;101041.03;4934584;28;124383;-68
2022/04/12 01:57:45;;;;;;;7.10;3.47;;;;;;;12.19;40.03;101044.66;4950807;28;123644;-68
2022/04/12 02:00:13;;;;;;;8.27;3.40;;;;;;;12.16;40.09;101050.09;4941541;28;114107;-67
2022/04/12 02:02:40;;;;;;;5.13;3.10;;;;;;;12.15;39.91;101051.06;4936395;28;114649;-67
2022/04/12 02:05:08;;;;;;;4.32;3.13;;;;;;;12.14;40.07;101044.00;4938934;28;124058;-67
2022/04/12 02:07:35;;;;;;;6.25;3.60;;;;;;;12.12;40.22;101045.03;4930166;28;124576;-67
2022/04/12 02:10:04;;;;;;;5.22;3.10;;;;;;;12.09;40.04;101024.78;4935611;28;113699;-68
2022/04/12 02:12:32;;;;;;;6.97;4.00;;;;;;;12.06;40.00;101031.09;4939141;28;114157;-67
2022/04/12 02:14:59;;;;;;;6.90;3.17;;;;;;;12.03;39.98;101015.31;4941900;28;124071;-68
2022/04/12 02:17:26;;;;;;;6.63;3.90;;;;;;;12.03;40.19;101025.09;4939586;28;124323;-65
2022/04/12 02:19:54;;;;;;;6.40;3.53;;;;;;;12.02;39.99;101023.38;4931133;28;114421;-66
2022/04/12 02:22:21;;;;;;;10.48;3.67;;;;;;;11.99;40.11;101020.84;4938833;28;114317;-68
2022/04/12 02:24:48;;;;;;;7.07;3.60;;;;;;;11.97;40.10;101030.69;4934885;28;123800;-68
2022/04/12 02:27:15;;;;;;;6.57;3.15;;;;;;;11.95;40.41;101022.78;4933538;28;123900;-69
2022/04/12 02:29:42;;;;;;;7.13;3.53;;;;;;;11.94;40.43;101030.81;4945675;28;113165;-66
2022/04/12 02:32:09;;;;;;;5.18;3.15;;;;;;;11.91;40.29;101031.00;4934751;28;113819;-65
2022/04/12 02:34:37;;;;;;;8.90;3.70;;;;;;;11.89;40.59;101028.38;4938707;28;124542;-66
2022/04/12 02:37:04;;;;;;;6.47;3.40;;;;;;;11.87;40.53;101028.44;4944671;28;123476;-66
2022/04/12 02:39:31;;;;;;;6.57;3.70;;;;;;;11.87;40.56;101025.78;4929606;28;115289;-65
2022/04/12 02:41:58;;;;;;;5.78;3.60;;;;;;;11.86;40.61;101032.00;4932388;28;114818;-66
2022/04/12 02:44:26;;;;;;;6.68;3.53;;;;;;;11.86;40.48;101026.72;4932864;28;124037;-66
2022/04/12 02:46:53;;;;;;;7.03;3.70;;;;;;;11.84;40.63;101015.31;4930657;28;123822;-68
2022/04/12 02:49:20;;;;;;;7.55;3.90;;;;;;;11.83;40.75;101003.00;4929676;28;114373;-65
2022/04/12 02:51:48;;;;;;;6.32;3.60;;;;;;;11.82;40.53;101006.56;4933211;28;113479;-65
2022/04/12 02:54:15;;;;;;;8.13;3.47;;;;;;;11.80;40.78;101013.75;4935292;28;123944;-66
2022/04/12 02:56:42;;;;;;;8.00;3.40;;;;;;;11.79;40.66;101012.03;4940507;28;124655;-66
2022/04/12 02:59:09;;;;;;;6.53;3.60;;;;;;;11.78;40.68;101014.75;4939151;28;114118;-65
2022/04/12 03:01:36;;;;;;;6.18;3.38;;;;;;;11.76;40.79;101001.56;4933830;28;114651;-66
2022/04/12 03:04:04;;;;;;;8.68;3.80;;;;;;;11.73;40.83;101001.69;4954127;28;124310;-66
2022/04/12 03:06:31;;;;;;;6.15;3.50;;;;;;;11.71;40.67;100992.94;4955046;28;123374;-68
2022/04/12 03:08:58;;;;;;;7.80;3.42;;;;;;;11.67;40.72;100986.06;4960061;28;113339;-69
2022/04/12 03:11:25;;;;;;;6.43;3.30;;;;;;;11.65;40.98;100982.63;4937539;28;114372;-69
2022/04/12 03:13:53;;;;;;;6.93;3.60;;;;;;;11.61;41.11;100991.66;4944500;28;124835;-68
2022/04/12 03:16:20;;;;;;;9.48;3.63;;;;;;;11.58;40.98;100987.34;4933926;28;124519;-67
2022/04/12 03:18:47;;;;;;;5.95;3.38;;;;;;;11.57;41.01;100990.09;4947216;28;114793;-67
2022/04/12 03:21:14;;;;;;;8.05;3.50;;;;;;;11.55;40.93;100991.97;4948224;28;113757;-67
2022/04/12 03:23:41;;;;;;;6.35;3.53;;;;;;;11.53;41.16;100988.50;4942718;28;124037;-67
2022/04/12 03:26:10;;;;;;;7.32;3.70;;;;;;;11.50;41.24;100971.78;4940062;28;96670;-65
2022/04/12 03:28:37;;;;;;;7.47;3.70;;;;;;;11.48;40.99;100986.94;4933718;28;115068;-65
2022/04/12 03:31:04;;;;;;;6.55;3.78;;;;;;;11.45;41.28;100983.56;4932246;28;115719;-64
2022/04/12 03:33:32;;;;;;;8.13;4.30;;;;;;;11.43;41.26;100977.47;4935621;28;124156;-65
2022/04/12 03:35:59;;;;;;;6.80;3.70;;;;;;;11.40;41.38;100978.47;4936870;28;124196;-64
2022/04/12 03:38:26;;;;;;;7.35;3.72;;;;;;;11.39;41.24;100975.88;4934331;28;114878;-66
2022/04/12 03:40:53;;;;;;;8.65;4.18;;;;;;;11.38;41.26;100969.72;4936069;28;114575;-67
2022/04/12 03:43:20;;;;;;;8.85;4.40;;;;;;;11.36;41.50;100966.28;4932766;28;123953;-67
2022/04/12 03:45:47;;;;;;;7.32;3.53;;;;;;;11.34;41.35;100968.16;4952825;28;123864;-67
2022/04/12 03:48:15;;;;;;;9.27;3.80;;;;;;;11.33;41.53;100966.44;4932342;28;114309;-67
2022/04/12 03:50:42;;;;;;;6.57;3.70;;;;;;;11.30;41.39;100950.66;4938827;28;114527;-67
2022/04/12 03:53:09;;;;;;;7.30;3.67;;;;;;;11.27;41.88;100951.66;4932588;28;123840;-67
2022/04/12 03:55:39;;;;;;;8.02;3.92;;;;;;;11.26;41.90;100949.97;4930307;28;123717;-67
2022/04/12 03:58:08;;;;;;;6.43;3.55;;;;;;;11.25;41.83;100952.69;4950808;28;113557;-67
2022/04/12 04:00:36;;;;;;;8.00;3.75;;;;;;;11.23;41.97;100949.25;4933880;28;113805;-67
2022/04/12 04:03:03;;;;;;;7.43;3.75;;;;;;;11.22;41.93;100953.66;4937103;28;124095;-67
2022/04/12 04:05:31;;;;;;;7.75;3.70;;;;;;;11.23;42.17;100971.28;4945080;28;123824;-66
2022/04/12 04:07:58;;;;;;;7.43;3.65;;;;;;;11.25;41.89;100974.75;4935443;28;114284;-67
2022/04/12 04:10:25;;;;;;;7.82;3.90;;;;;;;11.29;41.92;100970.16;4935427;28;114499;-67
2022/04/12 04:12:53;;;;;;;8.95;4.18;;;;;;;11.31;42.06;100968.28;4936112;28;124451;-66
2022/04/12 04:15:21;;;;;;;6.75;3.95;;;;;;;11.32;42.05;100967.38;4936920;28;125132;-67
2022/04/12 04:17:48;;;;;;;7.45;3.67;;;;;;;11.32;42.08;100962.06;4933881;28;116167;-66
2022/04/12 04:20:17;;;;;;;8.18;4.10;;;;;;;11.32;41.91;100970.03;4937836;28;114885;-66
2022/04/12 04:22:45;;;;;;;8.40;4.03;;;;;;;11.31;42.04;100970.94;4932606;28;124622;-66
2022/04/12 04:25:14;;;;;;;7.15;3.72;;;;;;;11.31;42.00;100968.28;4934668;28;123812;-67
2022/04/12 04:27:43;;;;;;;7.10;3.95;;;;;;;11.29;42.06;100963.06;4933899;28;114266;-66
2022/04/12 04:30:10;;;;;;;8.23;4.50;;;;;;;11.28;42.05;100957.81;4939890;28;114189;-66
2022/04/12 04:32:40;;;;;;;7.72;3.95;;;;;;;11.26;42.21;100954.38;4937229;28;124182;-66
2022/04/12 04:35:08;;;;;;;8.20;4.30;;;;;;;11.23;41.90;100954.53;4932589;28;124312;-66
2022/04/12 04:37:42;;;;;;;14.30;4.35;;;;;;;11.20;42.32;100946.72;4930492;28;114877;-67
2022/04/12 04:40:13;;;;;;;7.35;3.70;;;;;;;11.16;41.92;100945.13;4952793;28;113123;-66
2022/04/12 04:42:40;;;;;;;7.20;4.10;;;;;;;11.14;42.07;100944.34;4931541;28;124157;-66
2022/04/12 04:45:08;;;;;;;7.22;3.70;;;;;;;11.10;42.28;100955.09;4933108;28;124992;-66
2022/04/12 04:47:35;;;;;;;7.93;3.92;;;;;;;11.12;42.53;100956.81;4942668;28;114348;-66
2022/04/12 04:50:03;;;;;;;7.95;4.10;;;;;;;11.12;42.44;100962.13;4935536;28;114326;-67
2022/04/12 04:52:30;;;;;;;7.57;3.95;;;;;;;11.13;42.54;100958.53;4932009;28;123802;-66
2022/04/12 04:54:57;;;;;;;6.50;3.67;;;;;;;11.14;42.69;100954.97;4931754;28;124283;-67
2022/04/12 04:57:24;;;;;;;8.98;3.97;;;;;;;11.14;42.40;100954.97;4954738;28;112992;-67
2022/04/12 04:59:51;;;;;;;7.57;4.10;;;;;;;11.15;42.37;100969.91;4934222;28;113856;-67
2022/04/12 05:02:18;;;;;;;9.18;3.92;;;;;;;11.17;42.60;100976.00;4936707;28;124361;-67
2022/04/12 05:04:46;;;;;;;9.52;4.30;;;;;;;11.18;42.77;100972.44;4933473;28;124042;-67
2022/04/12 05:07:13;;;;;;;6.22;3.63;;;;;;;11.20;42.59;100970.56;4956485;28;115567;-67
2022/04/12 05:09:40;;;;;;;8.65;4.30;;;;;;;11.22;42.79;100968.72;4931731;28;115116;-67
2022/04/12 05:12:08;;;;;;;8.88;4.30;;;;;;;11.22;42.72;100956.31;4936184;28;124381;-67
2022/04/12 05:14:35;;;;;;;7.10;4.00;;;;;;;11.21;42.43;100959.91;4933047;28;124159;-67
2022/04/12 05:17:03;;;;;;;7.45;4.05;;;;;;;11.21;42.87;100961.72;4928850;28;114181;-67
2022/04/12 05:19:30;;;;;;;8.40;4.25;;;;;;;11.22;42.84;100947.50;4936643;28;114399;-67
2022/04/12 05:21:58;;;;;;;8.70;4.50;;;;;;;11.24;42.94;100959.75;4932563;28;123978;-67
2022/04/12 05:24:26;;;;;;;10.02;3.90;;;;;;;11.24;43.04;100972.16;4935781;28;124026;-68
2022/04/12 05:26:53;;;;;;;7.15;3.90;;;;;;;11.25;43.12;100968.59;4937958;28;115140;-67
2022/04/12 05:29:20;;;;;;;6.88;4.20;;;;;;;11.28;42.68;100973.72;4952198;28;114126;-67
2022/04/12 05:31:47;;;;;;;6.88;4.25;;;;;;;11.32;42.85;100980.63;4938503;28;124601;-67
2022/04/12 05:34:14;;;;;;;9.68;4.55;;;;;;;11.34;43.08;100984.06;4954072;28;125085;-67
2022/04/12 05:36:41;;;;;;;7.82;3.92;;;;;;;11.41;42.91;100990.78;4942413;28;114400;-67
2022/04/12 05:39:08;;;;;;;12.32;4.75;;;;;;;11.48;43.12;100992.22;4935272;28;114351;-67
2022/04/12 05:41:35;;;;;;;8.30;4.70;;;;;;;11.55;43.14;100991.97;4936091;28;123891;-67
2022/04/12 05:44:04;;;;;;;7.32;4.10;;;;;;;11.62;43.09;100994.25;4931727;28;123933;-67
2022/04/12 05:46:31;;;;;;;7.50;3.90;;;;;;;11.71;43.44;100987.63;4932990;28;114272;-68
2022/04/12 05:48:59;;;;;;;7.80;4.15;;;;;;;11.77;43.35;100997.97;4935241;28;114354;-67
2022/04/12 05:51:26;;;;;;;11.65;4.47;;;;;;;11.86;43.13;100992.22;4938002;28;124805;-67
2022/04/12 05:53:53;;;;;;;7.57;4.50;;;;;;;11.94;43.31;100989.25;4943710;28;124634;-67
2022/04/12 05:56:20;;;;;;;11.68;4.50;;;;;;;12.00;43.28;100982.78;4940039;28;116149;-67
2022/04/12 05:58:47;;;;;;;8.13;4.45;;;;;;;12.07;43.37;100979.75;4933675;28;115456;-68
2022/04/12 06:01:15;;;;;;;6.88;4.07;;;;;;;12.12;43.35;100976.00;4934294;28;124656;-67
2022/04/12 06:03:42;;;;;;;7.88;4.32;;;;;;;12.17;43.30;100979.28;4935789;28;123921;-67
2022/04/12 06:06:09;;;;;;;10.13;4.70;;;;;;;12.22;43.53;100983.44;4940823;28;114877;-67
2022/04/12 06:08:37;;;;;;;8.32;4.40;;;;;;;12.29;43.24;100983.13;4946823;28;114015;-67
2022/04/12 06:11:04;;;;;;;8.55;4.65;;;;;;;12.34;43.29;100994.34;4933444;28;124594;-67
2022/04/12 06:13:31;;;;;;;9.73;4.45;;;;;;;12.40;43.44;100994.06;4933504;28;123628;-67
2022/04/12 06:15:58;;;;;;;9.00;4.60;;;;;;;12.48;43.14;100986.56;4933973;28;114334;-67
2022/04/12 06:18:25;;;;;;;10.48;5.25;;;;;;;12.52;42.99;100985.47;4943791;28;113851;-67
2022/04/12 06:20:53;;;;;;;7.90;4.45;;;;;;;12.57;43.14;100978.13;4937274;28;123002;-66
2022/04/12 06:23:20;;;;;;;8.45;4.47;;;;;;;12.59;43.09;100981.56;4938334;28;124566;-67
2022/04/12 06:25:47;;;;;;;9.13;4.75;;;;;;;12.64;43.25;100989.31;4934047;28;114566;-67
2022/04/12 06:28:14;;;;;;;7.75;4.75;;;;;;;12.70;43.16;100989.00;4935563;28;114438;-68
2022/04/12 06:30:43;;;;;;;10.10;4.68;;;;;;;12.76;43.20;100998.44;4940162;28;123300;-68
2022/04/12 06:33:11;;;;;;;8.02;4.63;;;;;;;12.85;43.43;100993.50;4938668;28;123771;-67
2022/04/12 06:35:38;;;;;;;9.43;5.35;;;;;;;12.94;43.40;100992.19;4963575;28;113423;-67
2022/04/12 06:38:06;;;;;;;9.27;4.57;;;;;;;13.04;43.20;100988.06;4959030;28;113428;-67
2022/04/12 06:40:35;;;;;;;8.95;4.65;;;;;;;13.16;43.47;100985.72;4945553;28;124004;-67
2022/04/12 06:43:02;;;;;;;7.40;4.38;;;;;;;13.26;43.46;100992.25;4960506;28;122869;-68
2022/04/12 06:45:29;;;;;;;9.30;4.75;;;;;;;13.38;43.27;100980.13;4941209;28;115053;-67
2022/04/12 06:47:59;;;;;;;10.35;4.88;;;;;;;13.50;43.57;100989.22;4943477;28;115481;-67
2022/04/12 06:50:28;;;;;;;7.70;5.20;;;;;;;13.62;43.48;100977.91;4934418;28;124681;-67
2022/04/12 06:52:56;;;;;;;8.48;4.45;;;;;;;13.76;43.46;100985.97;4964797;28;124324;-66
2022/04/12 06:55:24;;;;;;;8.90;4.80;;;;;;;13.91;43.36;100973.59;4972810;28;113723;-66
2022/04/12 06:57:51;;;;;;;9.15;4.93;;;;;;;14.06;43.17;100982.53;4971299;28;114054;-66
2022/04/12 07:00:19;;;;;;;7.82;4.65;;;;;;;14.23;43.25;100986.03;4970249;28;124477;-67
2022/04/12 07:02:48;;;;;;;7.65;4.60;;;;;;;14.41;43.24;100982.28;4953581;28;123596;-67
2022/04/12 07:05:15;;;;;;;9.50;4.70;;;;;;;14.57;43.06;100988.44;4949780;28;113477;-66
2022/04/12 07:07:43;;;;;;;7.68;4.30;;;;;;;14.73;42.89;100976.84;4933004;28;113810;-66
2022/04/12 07:10:15;;;;;;;6.88;4.25;;;;;;;14.88;42.66;100981.28;4945389;28;125805;-66
2022/04/12 07:12:43;;;;;;;6.90;4.15;;;;;;;15.02;42.61;100972.41;4946736;28;124060;-66
2022/04/12 07:15:12;;;;;;;6.82;4.30;;;;;;;15.16;42.46;100963.56;4934396;28;114613;-67
2022/04/12 07:17:39;;;;;;;7.55;4.32;;;;;;;15.29;42.41;100953.81;4934692;28;113671;-66
2022/04/12 07:20:07;;;;;;;8.20;4.70;;;;;;;15.44;42.33;100956.47;4932953;28;124174;-66
2022/04/12 07:22:34;;;;;;;7.43;4.03;;;;;;;15.60;42.33;100957.22;4951156;28;122737;-67
2022/04/12 07:25:02;;;;;;;10.15;4.10;;;;;;;15.77;41.96;100953.50;4940115;28;114248;-66
2022/04/12 07:27:33;;;;;;;7.72;4.10;;;;;;;15.92;41.99;100951.63;4935173;28;114137;-66
2022/04/12 07:30:05;;;;;;;6.05;3.75;;;;;;;16.11;41.89;100945.94;4933333;28;125173;-67
2022/04/12 07:32:32;;;;;;;8.15;4.10;;;;;;;16.28;42.02;100947.47;4936189;28;124169;-67
2022/04/12 07:34:59;;;;;;;5.72;3.70;;;;;;;16.46;41.76;100940.88;4930747;28;115151;-67
2022/04/12 07:37:26;;;;;;;8.57;4.25;;;;;;;16.66;41.69;100941.31;4934342;28;113991;-72
2022/04/12 07:39:55;;;;;;;9.73;4.30;;;;;;;16.84;41.37;100936.53;4933178;28;123886;-67
2022/04/12 07:42:23;;;;;;;5.50;3.88;;;;;;;17.02;41.20;100947.78;4951709;28;123749;-66
2022/04/12 07:44:51;;;;;;;5.65;3.58;;;;;;;17.17;41.05;100952.03;4952257;28;114181;-68
2022/04/12 07:47:18;;;;;;;9.15;3.85;;;;;;;17.31;40.84;100954.59;4932587;28;113774;-67
2022/04/12 07:49:45;;;;;;;8.00;4.18;;;;;;;17.47;40.63;100942.78;4929439;28;124301;-68
2022/04/12 07:52:12;;;;;;;5.28;3.08;;;;;;;17.58;40.17;100934.81;4947451;28;123669;-67
2022/04/12 07:54:39;;;;;;;7.57;3.95;;;;;;;17.71;40.10;100930.25;4947531;28;113943;-68
2022/04/12 07:57:07;;;;;;;6.00;3.85;;;;;;;17.85;39.79;100939.13;4938101;28;114608;-68
2022/04/12 07:59:34;;;;;;;8.32;3.70;;;;;;;17.95;39.61;100942.84;4929739;28;124522;-68
2022/04/12 08:02:01;;;;;;;6.07;3.40;;;;;;;18.06;39.86;100950.94;4944587;28;123777;-68
2022/04/12 08:04:28;;;;;;;6.07;3.17;;;;;;;18.20;39.56;100949.06;4947571;28;114525;-67
2022/04/12 08:06:55;;;;;;;5.78;3.40;;;;;;;18.33;39.42;100952.50;4948972;28;112795;-68
2022/04/12 08:09:22;;;;;;;6.65;3.30;;;;;;;18.45;39.30;100946.19;4930749;28;123908;-68
2022/04/12 08:11:50;;;;;;;6.68;3.22;;;;;;;18.57;39.27;100944.41;4947757;28;122965;-68
2022/04/12 08:14:17;;;;;;;6.50;3.65;;;;;;;18.71;39.08;100940.66;4933266;28;114732;-68
2022/04/12 08:16:44;;;;;;;6.15;3.30;;;;;;;18.84;38.99;100943.28;4947567;28;113983;-68
2022/04/12 08:19:11;;;;;;;6.65;3.15;;;;;;;18.97;38.56;100944.00;4930548;28;123859;-68
2022/04/12 08:21:40;;;;;;;6.90;3.22;;;;;;;19.09;38.46;100950.22;4930009;28;123597;-68
2022/04/12 08:24:08;;;;;;;5.22;3.20;;;;;;;19.18;37.95;100943.28;4932102;28;115154;-68
2022/04/12 08:26:36;;;;;;;4.85;3.08;;;;;;;19.22;37.80;100940.22;4948858;28;114260;-68
2022/04/12 08:29:04;;;;;;;6.80;2.88;;;;;;;19.29;37.93;100939.72;4934553;28;124927;-70
2022/04/12 08:31:31;;;;;;;5.65;3.00;;;;;;;19.41;38.12;100949.50;4949437;28;124421;-68
2022/04/12 08:33:58;;;;;;;7.32;3.08;;;;;;;19.54;37.87;100949.34;4952044;28;114375;-68
2022/04/12 08:36:25;;;;;;;4.57;2.88;;;;;;;19.67;37.42;100949.22;4965232;28;114552;-68
2022/04/12 08:38:53;;;;;;;4.38;3.05;;;;;;;19.72;37.46;100946.97;4967550;28;123892;-69
2022/04/12 08:41:23;;;;;;;5.68;2.90;;;;;;;19.80;37.55;100939.19;4961520;28;124119;-68
2022/04/12 08:43:59;;;;;;;5.53;3.03;;;;;;;19.88;37.36;100942.09;4931636;28;114256;-68
2022/04/12 08:46:28;;;;;;;6.07;3.33;;;;;;;19.93;37.30;100939.88;4938750;28;114087;-69
2022/04/12 08:48:57;;;;;;;5.43;3.33;;;;;;;20.00;37.38;100935.72;4934516;28;123983;-69
2022/04/12 08:51:29;;;;;;;4.88;3.03;;;;;;;20.11;37.06;100942.00;4931809;28;123898;-68
2022/04/12 08:53:58;;;;;;;5.72;3.03;;;;;;;20.20;37.25;100943.94;4936054;28;114191;-69
2022/04/12 08:56:27;;;;;;;5.40;3.08;;;;;;;20.29;37.01;100935.09;4935385;28;113793;-69
2022/04/12 08:58:55;;;;;;;8.60;3.28;;;;;;;20.37;36.81;100937.13;4931596;28;124823;-68
2022/04/12 09:01:42;;;;;;;7.22;2.90;;;;;;;20.47;37.03;100921.03;4945022;28;124868;-68
2022/04/12 09:04:10;;;;;;;4.40;2.70;;;;;;;20.60;36.92;100932.47;4947817;28;113730;-68
2022/04/12 09:06:51;;;;;;;3.92;2.58;;;;;;;20.71;36.70;100924.34;4931250;28;114598;-69
2022/04/12 09:09:21;;;;;;;6.00;2.83;;;;;;;20.83;36.46;100924.25;4929520;28;123943;-68
2022/04/12 09:12:17;;;;;;;5.22;3.03;;;;;;;20.94;36.44;100918.78;4932150;28;123801;-68
2022/04/12 09:14:52;;;;;;;5.95;2.83;;;;;;;21.00;36.10;100912.84;4932341;28;114951;-68
2022/04/12 09:17:41;;;;;;;4.63;3.00;;;;;;;21.00;36.13;100907.47;4946125;28;114668;-69
2022/04/12 09:20:19;;;;;;;7.28;3.08;;;;;;;21.05;36.03;100901.69;4946701;28;123432;-69
2022/04/12 09:22:47;;;;;;;5.90;3.00;;;;;;;21.12;36.32;100903.72;4929164;28;123730;-69
2022/04/12 09:25:16;;;;;;;5.00;3.00;;;;;;;21.21;36.15;100902.03;4931807;28;114280;-69
2022/04/12 09:27:48;;;;;;;4.22;2.88;;;;;;;21.35;36.03;100911.56;4947107;28;112863;-69
2022/04/12 09:30:15;;;;;;;5.00;2.92;;;;;;;21.45;35.78;100907.09;4943130;28;123139;-68
2022/04/12 09:32:47;;;;;;;6.60;2.88;;;;;;;21.54;35.34;100910.81;4943094;28;123907;-69
2022/04/12 09:35:15;;;;;;;4.82;3.33;;;;;;;21.60;35.28;100910.22;4937933;28;114737;-69
2022/04/12 09:37:45;;;;;;;5.32;3.30;;;;;;;21.64;35.35;100910.81;4933893;28;113096;-69
2022/04/12 09:40:14;;;;;;;6.47;3.08;;;;;;;21.72;35.43;100908.28;4938395;28;125314;-69
2022/04/12 09:42:59;;;;;;;5.72;2.90;;;;;;;21.84;35.11;100901.75;4949019;28;124684;-68
2022/04/12 09:45:27;;;;;;;6.07;2.90;;;;;;;21.90;35.04;100895.78;4947169;28;114250;-69
2022/04/12 09:48:15;;;;;;;6.43;3.15;;;;;;;21.92;34.92;100893.81;4947872;28;113965;-68
2022/04/12 09:51:03;;;;;;;4.00;2.88;;;;;;;21.97;34.82;100888.84;4950169;28;123932;-68
2022/04/12 09:53:41;;;;;;;4.82;2.60;;;;;;;22.04;34.67;100880.16;4948777;28;124422;-69
2022/04/12 09:56:31;;;;;;;5.35;2.50;;;;;;;22.06;34.42;100878.22;4937120;28;114566;-68
2022/04/12 09:59:01;;;;;;;4.75;2.40;;;;;;;22.11;34.83;100870.53;4931241;28;113677;-68
2022/04/12 10:01:28;;;;;;;9.80;2.80;;;;;;;22.19;34.62;100867.97;4930705;28;124206;-69
2022/04/12 10:03:58;;;;;;;5.32;2.38;;;;;;;22.30;34.82;100875.94;4934908;28;124453;-69
2022/04/12 10:06:27;;;;;;;4.63;2.60;;;;;;;22.38;34.46;100877.91;4938983;28;116169;-69
2022/04/12 10:08:59;;;;;;;5.85;2.65;;;;;;;22.40;34.26;100885.88;4952496;28;115055;-69
2022/04/12 10:11:27;;;;;;;4.28;2.70;;;;;;;22.43;34.26;100885.56;4951375;28;124606;-68
2022/04/12 10:13:54;;;;;;;4.63;2.30;;;;;;;22.46;34.28;100879.88;4953391;28;124147;-69
2022/04/12 10:16:23;;;;;;;6.72;2.65;;;;;;;22.51;34.37;100883.00;4952131;28;115110;-68
2022/04/12 10:18:50;;;;;;;7.45;2.95;;;;;;;22.59;34.25;100891.22;4954689;28;114295;-69
2022/04/12 10:21:19;;;;;;;4.45;2.80;;;;;;;22.68;34.54;100884.94;4950935;28;124730;-69
2022/04/12 10:23:52;;;;;;;6.57;3.10;;;;;;;22.78;34.02;100884.06;4953700;28;124767;-68
2022/04/12 10:26:21;;;;;;;4.20;2.60;;;;;;;22.85;33.75;100879.75;4951815;28;114785;-69
2022/04/12 10:29:00;;;;;;;4.30;2.70;;;;;;;22.91;34.02;100873.75;4969997;28;113149;-69
2022/04/12 10:31:31;;;;;;;4.63;2.45;;;;;;;22.99;33.87;100871.16;4968197;28;123016;-69
2022/04/12 10:34:14;;;;;;;5.03;2.33;;;;;;;23.11;33.50;100869.13;4936645;28;124176;-69
2022/04/12 10:37:04;;;;;;;;;;;;;;;23.07;34.04;100865.88;4935029;28;113957;-69
2022/04/12 10:39:59;;;;;;;3.40;2.60;;;;;;;23.07;33.77;100856.94;4957326;28;112962;-68
2022/04/12 10:42:33;;;;;;;5.22;2.90;;;;;;;23.10;33.57;100852.06;4941144;28;124470;-69
2022/04/12 10:45:03;;;;;;;5.95;2.90;;;;;;;23.15;33.43;100864.28;4933648;28;123886;-69
2022/04/12 10:47:36;;;;;;;4.00;2.42;;;;;;;23.17;33.19;100855.03;4954546;28;112975;-69
2022/04/12 10:50:04;;;;;;;5.28;2.75;;;;;;;23.17;33.47;100846.94;4936995;28;114014;-68
2022/04/12 10:52:41;;;;;;;5.50;2.60;;;;;;;23.23;33.26;100850.88;4937724;28;124572;-68
2022/04/12 10:55:12;;;;;;;5.57;2.60;;;;;;;23.33;33.37;100851.66;4952967;28;123910;-68
2022/04/12 10:57:42;;;;;;;5.45;2.65;;;;;;;23.47;33.42;100837.63;4940722;28;114947;-69
2022/04/12 11:00:15;;;;;;;5.80;2.90;;;;;;;23.59;33.33;100829.28;4953083;28;115526;-68
2022/04/12 11:02:46;;;;;;;4.63;2.95;;;;;;;23.71;32.99;100828.91;4954715;28;123379;-69
2022/04/12 11:05:45;;;;;;;3.72;2.45;;;;;;;23.77;33.03;100827.44;4939423;28;123731;-69
2022/04/12 11:08:15;;;;;;;6.32;2.80;;;;;;;23.87;32.86;100830.94;4952077;28;114203;-69
2022/04/12 11:11:09;;;;;;;5.38;2.40;;;;;;;23.97;32.80;100833.53;4950405;28;114651;-69
2022/04/12 11:13:37;;;;;;;5.57;2.40;;;;;;;24.05;32.96;100838.16;4951239;28;124208;-68
2022/04/12 11:16:10;;;;;;;4.82;2.78;;;;;;;24.10;32.75;100827.72;4952334;28;123649;-69
2022/04/12 11:18:53;;;;;;;6.85;2.97;;;;;;;24.17;32.46;100823.38;4952603;28;113054;-68
2022/04/12 11:21:23;;;;;;;5.82;2.55;;;;;;;24.24;32.58;100813.63;4953262;28;114876;-68
2022/04/12 11:24:06;;;;;;;4.53;2.55;;;;;;;24.25;32.04;100815.31;4951903;28;124113;-68
2022/04/12 11:26:45;;;;;;;5.10;2.42;;;;;;;24.21;32.35;100803.09;4950135;28;124621;-69